createdAt,value
2019-05-29T00:00:58.431Z,64.43
2019-05-29T00:01:58.392Z,64.74
2019-05-29T00:02:58.402Z,64.23
2019-05-29T00:03:58.409Z,65.15
2019-05-29T00:04:58.393Z,64.64
2019-05-29T00:05:58.369Z,64.95
2019-05-29T00:06:58.352Z,65.46
2019-05-29T00:07:58.343Z,65.15
2019-05-29T00:08:58.337Z,65.18
2019-05-29T00:09:58.319Z,66.10
2019-05-29T00:10:58.313Z,64.98
2019-05-29T00:11:58.302Z,64.74
2019-05-29T00:12:58.283Z,64.54
2019-05-29T00:13:58.281Z,64.95
2019-05-29T00:14:58.278Z,64.13
2019-05-29T00:15:58.255Z,64.54
2019-05-29T00:16:58.255Z,64.74
2019-05-29T00:17:58.224Z,64.95
2019-05-29T00:18:58.450Z,63.92
2019-05-29T00:19:58.224Z,63.72
2019-05-29T00:20:58.200Z,64.84
2019-05-29T00:21:58.182Z,64.54
2019-05-29T00:22:58.178Z,64.74
2019-05-29T00:23:58.165Z,65.15
2019-05-29T00:24:58.174Z,64.33
2019-05-29T00:25:58.138Z,64.33
2019-05-29T00:26:58.123Z,64.54
2019-05-29T00:27:58.129Z,64.95
2019-05-29T00:28:58.094Z,64.74
2019-05-29T00:29:58.132Z,65.25
2019-05-29T00:30:58.085Z,64.43
2019-05-29T00:31:58.080Z,63.82
2019-05-29T00:32:58.062Z,64.33
2019-05-29T00:33:58.034Z,63.82
2019-05-29T00:34:58.056Z,64.64
2019-05-29T00:35:58.070Z,64.95
2019-05-29T00:36:58.027Z,64.33
2019-05-29T00:37:58.011Z,64.23
2019-05-29T00:38:57.997Z,64.33
2019-05-29T00:39:57.995Z,64.33
2019-05-29T00:40:57.970Z,64.23
2019-05-29T00:41:57.955Z,64.84
2019-05-29T00:42:57.950Z,63.92
2019-05-29T00:43:57.941Z,64.95
2019-05-29T00:44:57.942Z,63.82
2019-05-29T00:45:57.977Z,64.33
2019-05-29T00:46:57.905Z,64.03
2019-05-29T00:47:57.896Z,63.72
2019-05-29T00:48:57.895Z,62.59
2019-05-29T00:49:57.887Z,63.48
2019-05-29T00:50:57.866Z,63.41
2019-05-29T00:51:57.847Z,63.18
2019-05-29T00:52:57.847Z,63.39
2019-05-29T00:53:57.825Z,63.39
2019-05-29T00:54:57.843Z,62.59
2019-05-29T00:55:57.814Z,62.77
2019-05-29T00:56:57.795Z,63.48
2019-05-29T00:57:57.790Z,62.87
2019-05-29T00:58:57.768Z,64.20
2019-05-29T00:59:57.787Z,62.57
2019-05-29T01:00:57.751Z,62.77
2019-05-29T01:01:57.758Z,62.36
2019-05-29T01:02:57.742Z,62.80
2019-05-29T01:03:57.732Z,62.77
2019-05-29T01:04:57.742Z,62.59
2019-05-29T01:05:57.712Z,63.69
2019-05-29T01:06:57.686Z,64.13
2019-05-29T01:07:57.678Z,63.72
2019-05-29T01:08:57.657Z,64.23
2019-05-29T01:09:57.689Z,63.62
2019-05-29T01:10:57.644Z,63.41
2019-05-29T01:11:57.648Z,64.13
2019-05-29T01:12:57.619Z,63.72
2019-05-29T01:13:57.599Z,63.62
2019-05-29T01:14:57.621Z,64.74
2019-05-29T01:15:57.590Z,63.92
2019-05-29T01:16:57.581Z,63.82
2019-05-29T01:17:57.560Z,64.84
2019-05-29T01:18:57.583Z,64.54
2019-05-29T01:19:57.570Z,64.64
2019-05-29T01:20:57.545Z,64.98
2019-05-29T01:21:57.733Z,64.64
2019-05-29T01:22:57.511Z,64.36
2019-05-29T01:23:57.486Z,65.59
2019-05-29T01:24:57.526Z,64.77
2019-05-29T01:25:57.483Z,64.67
2019-05-29T01:26:57.459Z,65.90
2019-05-29T01:27:57.457Z,65.08
2019-05-29T01:28:57.442Z,66.61
2019-05-29T01:29:57.445Z,65.08
2019-05-29T01:30:57.424Z,66.00
2019-05-29T01:31:57.405Z,66.31
2019-05-29T01:32:57.388Z,65.59
2019-05-29T01:33:57.378Z,66.41
2019-05-29T01:34:57.395Z,67.13
2019-05-29T01:35:57.369Z,66.82
2019-05-29T01:36:57.345Z,67.33
2019-05-29T01:37:57.354Z,67.43
2019-05-29T01:38:57.346Z,66.82
2019-05-29T01:39:57.330Z,67.57
2019-05-29T01:40:57.321Z,67.43
2019-05-29T01:41:57.312Z,67.02
2019-05-29T01:42:57.282Z,67.23
2019-05-29T01:43:57.279Z,67.02
2019-05-29T01:45:07.097Z,68.05
2019-05-29T01:45:58.255Z,67.13
2019-05-29T01:46:57.244Z,68.15
2019-05-29T01:47:57.247Z,68.35
2019-05-29T01:48:57.228Z,68.59
2019-05-29T01:49:57.216Z,68.79
2019-05-29T01:50:57.184Z,68.79
2019-05-29T01:51:57.189Z,69.10
2019-05-29T01:52:57.181Z,68.59
2019-05-29T01:53:57.170Z,68.69
2019-05-29T01:54:57.164Z,69.10
2019-05-29T01:55:57.157Z,69.31
2019-05-29T01:56:57.130Z,69.00
2019-05-29T01:57:57.116Z,69.17
2019-05-29T01:58:57.119Z,68.79
2019-05-29T01:59:57.107Z,69.20
2019-05-29T02:00:57.076Z,69.17
2019-05-29T02:01:57.094Z,69.31
2019-05-29T02:02:57.059Z,69.10
2019-05-29T02:03:57.046Z,69.07
2019-05-29T02:04:57.065Z,69.27
2019-05-29T02:05:57.027Z,69.07
2019-05-29T02:06:57.040Z,68.97
2019-05-29T02:07:57.013Z,69.38
2019-05-29T02:08:57.009Z,69.48
2019-05-29T02:09:57.003Z,69.38
2019-05-29T02:10:56.979Z,68.66
2019-05-29T02:11:56.974Z,69.68
2019-05-29T02:12:56.944Z,69.79
2019-05-29T02:13:56.946Z,69.58
2019-05-29T02:14:56.946Z,69.58
2019-05-29T02:15:56.915Z,69.38
2019-05-29T02:16:56.904Z,69.07
2019-05-29T02:17:56.924Z,69.27
2019-05-29T02:18:56.885Z,70.09
2019-05-29T02:19:56.955Z,69.79
2019-05-29T02:20:56.872Z,69.27
2019-05-29T02:21:56.874Z,69.99
2019-05-29T02:22:56.867Z,69.79
2019-05-29T02:23:56.848Z,69.27
2019-05-29T02:24:56.858Z,70.20
2019-05-29T02:25:56.818Z,69.58
2019-05-29T02:26:56.795Z,69.99
2019-05-29T02:27:56.803Z,69.58
2019-05-29T02:28:56.774Z,69.58
2019-05-29T02:29:56.783Z,69.96
2019-05-29T02:30:56.757Z,70.06
2019-05-29T02:31:56.747Z,69.96
2019-05-29T02:32:56.739Z,69.96
2019-05-29T02:33:56.726Z,69.65
2019-05-29T02:34:56.953Z,69.96
2019-05-29T02:35:56.722Z,69.55
2019-05-29T02:36:56.682Z,69.89
2019-05-29T02:37:56.683Z,70.26
2019-05-29T02:38:56.700Z,69.96
2019-05-29T02:39:56.679Z,69.65
2019-05-29T02:40:56.656Z,70.06
2019-05-29T02:41:56.653Z,69.96
2019-05-29T02:42:56.631Z,69.96
2019-05-29T02:43:56.616Z,69.85
2019-05-29T02:44:56.618Z,69.65
2019-05-29T02:45:56.621Z,70.16
2019-05-29T02:46:56.598Z,69.96
2019-05-29T02:47:56.584Z,70.26
2019-05-29T02:48:56.567Z,69.85
2019-05-29T02:49:56.573Z,69.85
2019-05-29T02:50:56.555Z,69.75
2019-05-29T02:51:56.531Z,70.16
2019-05-29T02:52:57.429Z,69.96
2019-05-29T02:53:56.526Z,69.75
2019-05-29T02:54:56.512Z,70.06
2019-05-29T02:55:56.470Z,69.85
2019-05-29T02:56:56.476Z,70.06
2019-05-29T02:57:56.485Z,70.16
2019-05-29T02:58:56.445Z,69.55
2019-05-29T02:59:56.479Z,69.65
2019-05-29T03:00:56.433Z,69.55
2019-05-29T03:01:56.415Z,70.16
2019-05-29T03:02:56.444Z,69.65
2019-05-29T03:03:56.389Z,69.65
2019-05-29T03:04:56.409Z,69.75
2019-05-29T03:05:56.390Z,69.65
2019-05-29T03:06:56.350Z,70.26
2019-05-29T03:07:56.358Z,69.75
2019-05-29T03:08:56.331Z,69.75
2019-05-29T03:09:56.332Z,70.16
2019-05-29T03:10:56.333Z,69.65
2019-05-29T03:12:00.057Z,70.16
2019-05-29T03:12:56.336Z,70.67
2019-05-29T03:13:56.302Z,70.26
2019-05-29T03:14:56.306Z,69.75
2019-05-29T03:16:09.840Z,70.47
2019-05-29T03:16:57.256Z,70.67
2019-05-29T03:17:56.260Z,70.88
2019-05-29T03:18:56.227Z,70.67
2019-05-29T03:19:56.235Z,71.29
2019-05-29T03:20:56.212Z,70.37
2019-05-29T03:21:56.238Z,70.06
2019-05-29T03:22:56.187Z,70.37
2019-05-29T03:23:56.184Z,70.67
2019-05-29T03:24:56.194Z,70.78
2019-05-29T03:25:56.154Z,71.39
2019-05-29T03:26:56.162Z,70.88
2019-05-29T03:27:56.198Z,70.57
2019-05-29T03:28:56.122Z,71.19
2019-05-29T03:29:56.136Z,70.67
2019-05-29T03:30:56.115Z,70.98
2019-05-29T03:31:56.080Z,70.47
2019-05-29T03:32:56.079Z,70.47
2019-05-29T03:33:56.061Z,70.78
2019-05-29T03:34:56.063Z,70.43
2019-05-29T03:35:56.053Z,70.43
2019-05-29T03:36:56.029Z,70.26
2019-05-29T03:37:58.790Z,70.23
2019-05-29T03:38:56.012Z,70.43
2019-05-29T03:39:56.052Z,70.13
2019-05-29T03:40:55.997Z,70.23
2019-05-29T03:41:55.975Z,69.62
2019-05-29T03:42:55.979Z,69.62
2019-05-29T03:43:55.951Z,69.72
2019-05-29T03:44:55.951Z,69.93
2019-05-29T03:45:55.927Z,69.93
2019-05-29T03:46:55.932Z,69.42
2019-05-29T03:47:55.914Z,69.62
2019-05-29T03:48:55.917Z,70.03
2019-05-29T03:49:55.904Z,69.62
2019-05-29T03:50:55.869Z,69.82
2019-05-29T03:51:55.871Z,69.82
2019-05-29T03:52:55.862Z,70.13
2019-05-29T03:53:55.848Z,69.62
2019-05-29T03:54:55.852Z,70.23
2019-05-29T03:55:55.825Z,69.82
2019-05-29T03:56:55.816Z,69.72
2019-05-29T03:57:55.817Z,69.59
2019-05-29T03:58:55.801Z,69.79
2019-05-29T03:59:55.783Z,69.59
2019-05-29T04:00:55.771Z,69.52
2019-05-29T04:01:55.768Z,69.28
2019-05-29T04:02:55.746Z,69.62
2019-05-29T04:03:55.737Z,69.82
2019-05-29T04:04:55.755Z,70.75
2019-05-29T04:05:55.729Z,69.62
2019-05-29T04:06:55.719Z,70.43
2019-05-29T04:07:55.700Z,70.43
2019-05-29T04:08:55.684Z,70.13
2019-05-29T04:09:55.674Z,70.34
2019-05-29T04:10:55.667Z,70.03
2019-05-29T04:11:55.657Z,70.23
2019-05-29T04:12:55.626Z,70.23
2019-05-29T04:13:55.619Z,70.23
2019-05-29T04:14:55.630Z,70.64
2019-05-29T04:15:55.605Z,70.75
2019-05-29T04:16:59.817Z,71.29
2019-05-29T04:17:55.577Z,70.03
2019-05-29T04:18:55.572Z,70.84
2019-05-29T04:19:55.586Z,70.75
2019-05-29T04:20:55.548Z,70.75
2019-05-29T04:21:55.543Z,70.64
2019-05-29T04:22:55.525Z,71.46
2019-05-29T04:23:55.516Z,70.03
2019-05-29T04:24:55.545Z,71.25
2019-05-29T04:25:55.486Z,70.34
2019-05-29T04:26:55.485Z,70.03
2019-05-29T04:27:55.470Z,70.00
2019-05-29T04:28:55.476Z,70.34
2019-05-29T04:29:55.454Z,70.00
2019-05-29T04:30:55.453Z,70.30
2019-05-29T04:31:55.421Z,70.30
2019-05-29T04:32:55.429Z,70.20
2019-05-29T04:33:55.397Z,70.10
2019-05-29T04:34:55.397Z,69.69
2019-05-29T04:35:55.386Z,69.89
2019-05-29T04:36:55.369Z,69.79
2019-05-29T04:37:55.353Z,69.59
2019-05-29T04:38:55.353Z,69.28
2019-05-29T04:39:55.343Z,68.87
2019-05-29T04:40:55.347Z,68.84
2019-05-29T04:41:55.335Z,68.43
2019-05-29T04:42:55.293Z,69.15
2019-05-29T04:43:57.168Z,68.53
2019-05-29T04:44:55.280Z,68.43
2019-05-29T04:45:55.274Z,68.70
2019-05-29T04:47:10.404Z,68.60
2019-05-29T04:47:56.248Z,68.50
2019-05-29T04:48:55.227Z,67.89
2019-05-29T04:49:55.235Z,67.38
2019-05-29T04:50:55.228Z,66.77
2019-05-29T04:51:55.220Z,66.77
2019-05-29T04:52:55.188Z,67.35
2019-05-29T04:53:55.174Z,66.74
2019-05-29T04:54:55.173Z,66.74
2019-05-29T04:55:55.181Z,65.89
2019-05-29T04:56:55.165Z,66.19
2019-05-29T04:57:55.144Z,65.78
2019-05-29T04:58:55.130Z,64.76
2019-05-29T04:59:55.126Z,65.99
2019-05-29T05:00:59.171Z,64.66
2019-05-29T05:01:55.096Z,65.65
2019-05-29T05:02:55.090Z,64.53
2019-05-29T05:03:55.060Z,65.04
2019-05-29T05:04:55.078Z,64.90
2019-05-29T05:05:55.080Z,64.09
2019-05-29T05:06:55.036Z,63.99
2019-05-29T05:07:55.065Z,63.18
2019-05-29T05:08:55.028Z,62.66
2019-05-29T05:09:54.996Z,62.23
2019-05-29T05:10:55.002Z,62.13
2019-05-29T05:11:54.981Z,62.23
2019-05-29T05:12:54.977Z,62.20
2019-05-29T05:13:54.955Z,62.37
2019-05-29T05:14:54.965Z,61.66
2019-05-29T05:15:54.947Z,61.02
2019-05-29T05:16:54.921Z,60.95
2019-05-29T05:17:54.916Z,60.00
2019-05-29T05:18:54.918Z,59.91
2019-05-29T05:19:54.898Z,59.50
2019-05-29T05:20:54.897Z,59.98
2019-05-29T05:21:54.919Z,59.67
2019-05-29T05:22:54.862Z,59.06
2019-05-29T05:23:54.855Z,59.47
2019-05-29T05:24:55.485Z,59.27
2019-05-29T05:25:54.825Z,58.78
2019-05-29T05:26:54.813Z,59.19
2019-05-29T05:27:54.806Z,58.89
2019-05-29T05:28:54.823Z,58.28
2019-05-29T05:29:54.777Z,58.78
2019-05-29T05:30:54.784Z,58.45
2019-05-29T05:31:54.773Z,58.12
2019-05-29T05:32:54.742Z,57.41
2019-05-29T05:33:54.752Z,56.49
2019-05-29T05:34:54.732Z,55.86
2019-05-29T05:35:54.726Z,56.77
2019-05-29T05:36:54.713Z,55.05
2019-05-29T05:37:54.708Z,54.92
2019-05-29T05:38:54.735Z,54.79
2019-05-29T05:39:54.671Z,53.75
2019-05-29T05:40:54.665Z,53.42
2019-05-29T05:41:54.641Z,53.32
2019-05-29T05:42:54.642Z,53.12
2019-05-29T05:43:54.645Z,52.08
2019-05-29T05:44:54.622Z,51.65
2019-05-29T05:45:54.618Z,51.14
2019-05-29T05:46:54.607Z,50.99
2019-05-29T05:47:57.837Z,50.49
2019-05-29T05:48:54.568Z,50.18
2019-05-29T05:49:54.567Z,49.90
2019-05-29T05:50:54.556Z,50.11
2019-05-29T05:51:54.540Z,50.13
2019-05-29T05:52:54.531Z,50.34
2019-05-29T05:53:54.519Z,50.34
2019-05-29T05:54:54.507Z,49.93
2019-05-29T05:55:54.543Z,50.34
2019-05-29T05:56:54.516Z,49.62
2019-05-29T05:57:54.466Z,50.01
2019-05-29T05:58:54.467Z,50.31
2019-05-29T05:59:54.457Z,49.17
2019-05-29T06:00:54.450Z,49.27
2019-05-29T06:01:54.428Z,48.57
2019-05-29T06:02:54.409Z,49.17
2019-05-29T06:03:54.411Z,48.62
2019-05-29T06:04:54.389Z,48.02
2019-05-29T06:05:54.394Z,47.20
2019-05-29T06:06:54.361Z,47.51
2019-05-29T06:07:54.363Z,46.80
2019-05-29T06:08:54.349Z,47.71
2019-05-29T06:09:54.345Z,47.43
2019-05-29T06:10:54.352Z,48.28
2019-05-29T06:11:54.315Z,49.10
2019-05-29T06:12:54.295Z,48.99
2019-05-29T06:13:54.295Z,49.70
2019-05-29T06:14:54.291Z,49.68
2019-05-29T06:15:54.279Z,47.71
2019-05-29T06:16:54.261Z,47.24
2019-05-29T06:18:17.113Z,45.93
2019-05-29T06:18:55.234Z,45.83
2019-05-29T06:19:54.215Z,45.68
2019-05-29T06:20:54.216Z,45.01
2019-05-29T06:21:54.211Z,43.59
2019-05-29T06:22:54.203Z,42.35
2019-05-29T06:23:54.195Z,42.80
2019-05-29T06:24:54.178Z,41.03
2019-05-29T06:25:54.183Z,37.85
2019-05-29T06:26:54.150Z,36.79
2019-05-29T06:27:54.145Z,34.44
2019-05-29T06:28:54.139Z,33.81
2019-05-29T06:29:54.109Z,34.28
2019-05-29T06:30:54.119Z,32.65
2019-05-29T06:31:54.074Z,32.54
2019-05-29T06:32:54.085Z,32.23
2019-05-29T06:33:54.070Z,31.53
2019-05-29T06:34:54.077Z,31.21
2019-05-29T06:35:54.074Z,30.99
2019-05-29T06:36:54.062Z,30.56
2019-05-29T06:37:54.030Z,29.77
2019-05-29T06:38:54.022Z,29.46
2019-05-29T06:39:54.012Z,29.96
2019-05-29T06:40:54.005Z,29.36
2019-05-29T06:41:53.985Z,29.24
2019-05-29T06:42:53.996Z,28.83
2019-05-29T06:43:53.955Z,27.66
2019-05-29T06:44:53.981Z,28.94
2019-05-29T06:45:53.960Z,29.43
2019-05-29T06:46:53.932Z,29.51
2019-05-29T06:47:53.927Z,28.21
2019-05-29T06:49:00.417Z,28.00
2019-05-29T06:49:54.902Z,27.89
2019-05-29T06:50:57.113Z,27.19
2019-05-29T06:51:53.884Z,27.31
2019-05-29T06:52:53.855Z,28.01
2019-05-29T06:53:53.859Z,28.22
2019-05-29T06:54:53.856Z,28.76
2019-05-29T06:55:55.744Z,29.00
2019-05-29T06:56:53.833Z,29.81
2019-05-29T06:57:53.810Z,29.93
2019-05-29T06:58:53.828Z,31.41
2019-05-29T06:59:53.810Z,31.56
2019-05-29T07:00:53.783Z,32.09
2019-05-29T07:01:53.779Z,32.23
2019-05-29T07:02:53.747Z,31.92
2019-05-29T07:04:10.474Z,31.92
2019-05-29T07:04:54.748Z,31.73
2019-05-29T07:05:53.743Z,31.78
2019-05-29T07:06:53.740Z,31.98
2019-05-29T07:07:53.724Z,32.45
2019-05-29T07:08:53.704Z,32.00
2019-05-29T07:09:53.685Z,31.67
2019-05-29T07:10:53.726Z,30.27
2019-05-29T07:11:53.678Z,29.34
2019-05-29T07:12:53.654Z,30.98
2019-05-29T07:13:53.657Z,31.27
2019-05-29T07:14:53.626Z,30.07
2019-05-29T07:15:53.634Z,30.96
2019-05-29T07:16:56.188Z,31.60
2019-05-29T07:17:53.606Z,32.03
2019-05-29T07:19:23.759Z,32.75
2019-05-29T07:20:03.378Z,33.50
2019-05-29T07:20:54.588Z,33.15
2019-05-29T07:21:53.580Z,31.81
2019-05-29T07:22:53.554Z,31.15
2019-05-29T07:23:53.532Z,30.52
2019-05-29T07:24:53.535Z,29.41
2019-05-29T07:25:53.517Z,29.47
2019-05-29T07:26:53.532Z,32.12
2019-05-29T07:27:53.508Z,32.29
2019-05-29T07:29:06.465Z,32.10
2019-05-29T07:29:54.486Z,32.53
2019-05-29T07:31:01.209Z,32.30
2019-05-29T07:31:54.464Z,32.37
2019-05-29T07:32:58.324Z,29.63
2019-05-29T07:33:54.432Z,29.69
2019-05-29T07:35:03.036Z,29.52
2019-05-29T07:35:54.416Z,26.92
2019-05-29T07:36:53.426Z,28.36
2019-05-29T07:37:53.410Z,26.68
2019-05-29T07:39:02.718Z,27.68
2019-05-29T07:39:54.370Z,28.30
2019-05-29T07:40:53.398Z,28.64
2019-05-29T07:41:53.361Z,29.63
2019-05-29T07:42:56.795Z,30.27
2019-05-29T07:43:53.325Z,30.77
2019-05-29T07:44:53.331Z,31.13
2019-05-29T07:45:53.327Z,30.80
2019-05-29T07:46:53.335Z,28.66
2019-05-29T07:47:53.296Z,28.73
2019-05-29T07:48:53.278Z,28.20
2019-05-29T07:49:53.268Z,28.18
2019-05-29T07:51:06.240Z,28.63
2019-05-29T07:51:54.304Z,28.99
2019-05-29T07:52:53.344Z,31.34
2019-05-29T07:53:53.228Z,31.91
2019-05-29T07:54:53.275Z,33.66
2019-05-29T07:55:53.201Z,33.36
2019-05-29T07:56:53.216Z,32.86
2019-05-29T07:57:53.196Z,31.07
2019-05-29T07:59:02.212Z,29.14
2019-05-29T07:59:54.153Z,27.20
2019-05-29T08:01:05.370Z,25.97
2019-05-29T08:01:54.158Z,26.17
2019-05-29T08:02:53.131Z,27.92
2019-05-29T08:03:53.127Z,29.37
2019-05-29T08:04:53.109Z,30.21
2019-05-29T08:05:53.517Z,30.54
2019-05-29T08:06:54.617Z,31.45
2019-05-29T08:07:53.123Z,32.28
2019-05-29T08:08:53.072Z,32.91
2019-05-29T08:09:53.056Z,32.31
2019-05-29T08:10:53.041Z,32.17
2019-05-29T08:11:53.052Z,32.78
2019-05-29T08:12:55.597Z,33.11
2019-05-29T08:13:53.010Z,34.14
2019-05-29T08:14:53.026Z,34.16
2019-05-29T08:16:02.330Z,33.49
2019-05-29T08:16:54.000Z,34.51
2019-05-29T08:17:52.961Z,34.92
2019-05-29T08:18:53.334Z,34.76
2019-05-29T08:20:03.185Z,35.18
2019-05-29T08:20:53.946Z,34.36
2019-05-29T08:21:52.931Z,32.43
2019-05-29T08:22:52.924Z,29.97
2019-05-29T08:23:52.903Z,28.50
2019-05-29T08:24:52.884Z,27.16
2019-05-29T08:25:52.869Z,25.84
2019-05-29T08:26:52.897Z,26.01
2019-05-29T08:27:52.853Z,25.08
2019-05-29T08:28:52.845Z,23.48
2019-05-29T08:29:52.859Z,23.47
2019-05-29T08:30:56.418Z,23.26
2019-05-29T08:31:52.827Z,23.33
2019-05-29T08:32:52.829Z,22.94
2019-05-29T08:33:52.805Z,22.44
2019-05-29T08:34:52.782Z,22.14
2019-05-29T08:35:59.362Z,21.55
2019-05-29T08:37:04.873Z,21.05
2019-05-29T08:37:53.765Z,20.94
2019-05-29T08:38:52.741Z,21.62
2019-05-29T08:39:52.737Z,21.89
2019-05-29T08:40:52.740Z,23.33
2019-05-29T08:42:18.104Z,24.36
2019-05-29T08:42:53.706Z,25.59
2019-05-29T08:43:52.899Z,25.79
2019-05-29T08:44:52.684Z,25.14
2019-05-29T08:45:52.840Z,23.67
2019-05-29T08:47:08.961Z,24.77
2019-05-29T08:47:53.646Z,24.92
2019-05-29T08:48:52.654Z,23.51
2019-05-29T08:49:54.437Z,23.28
2019-05-29T08:50:52.644Z,21.50
2019-05-29T08:52:10.194Z,21.98
2019-05-29T08:52:53.616Z,22.24
2019-05-29T08:53:54.712Z,20.93
2019-05-29T08:54:52.595Z,20.54
2019-05-29T08:55:52.751Z,20.51
2019-05-29T08:56:52.602Z,20.68
2019-05-29T08:57:52.571Z,19.29
2019-05-29T08:58:52.626Z,18.98
2019-05-29T08:59:52.722Z,17.83
2019-05-29T09:00:55.208Z,19.48
2019-05-29T09:01:55.276Z,20.12
2019-05-29T09:02:52.873Z,21.42
2019-05-29T09:03:53.323Z,22.28
2019-05-29T09:04:54.690Z,21.07
2019-05-29T09:06:08.181Z,21.55
2019-05-29T09:06:53.638Z,21.15
2019-05-29T09:07:54.265Z,21.17
2019-05-29T09:08:54.728Z,21.44
2019-05-29T09:09:53.297Z,21.04
2019-05-29T09:10:53.935Z,20.83
2019-05-29T09:11:53.627Z,20.25
2019-05-29T09:13:03.618Z,19.95
2019-05-29T09:13:53.415Z,20.03
2019-05-29T09:14:52.524Z,19.04
2019-05-29T09:15:52.413Z,20.22
2019-05-29T09:16:52.476Z,19.32
2019-05-29T09:17:52.358Z,18.43
2019-05-29T09:18:52.358Z,19.54
2019-05-29T09:19:52.348Z,20.30
2019-05-29T09:21:02.804Z,22.41
2019-05-29T09:21:53.338Z,20.70
2019-05-29T09:22:52.326Z,21.10
2019-05-29T09:23:52.297Z,21.33
2019-05-29T09:24:52.296Z,21.35
2019-05-29T09:25:52.288Z,21.93
2019-05-29T09:26:52.289Z,21.71
2019-05-29T09:27:52.284Z,21.30
2019-05-29T09:28:52.264Z,22.22
2019-05-29T09:29:52.274Z,22.34
2019-05-29T09:30:52.234Z,22.27
2019-05-29T09:31:52.243Z,20.17
2019-05-29T09:32:53.120Z,20.43
2019-05-29T09:33:52.212Z,19.64
2019-05-29T09:34:52.243Z,20.34
2019-05-29T09:35:52.196Z,19.88
2019-05-29T09:36:55.478Z,21.15
2019-05-29T09:37:52.173Z,20.83
2019-05-29T09:38:52.175Z,20.24
2019-05-29T09:39:52.151Z,19.96
2019-05-29T09:40:52.948Z,20.59
2019-05-29T09:41:52.144Z,21.29
2019-05-29T09:42:52.117Z,21.64
2019-05-29T09:43:58.600Z,23.57
2019-05-29T09:44:53.103Z,23.70
2019-05-29T09:45:52.085Z,22.56
2019-05-29T09:46:52.111Z,22.71
2019-05-29T09:47:52.064Z,21.30
2019-05-29T09:48:52.079Z,21.79
2019-05-29T09:49:52.063Z,21.09
2019-05-29T09:50:52.049Z,20.48
2019-05-29T09:51:52.671Z,20.45
2019-05-29T09:52:54.510Z,19.74
2019-05-29T09:53:52.460Z,20.33
2019-05-29T09:54:53.469Z,19.62
2019-05-29T09:55:52.291Z,17.94
2019-05-29T09:56:52.240Z,18.13
2019-05-29T09:57:53.522Z,17.55
2019-05-29T09:58:53.654Z,18.52
2019-05-29T09:59:53.795Z,18.31
2019-05-29T10:01:09.599Z,17.42
2019-05-29T10:01:54.666Z,17.32
2019-05-29T10:02:52.819Z,18.44
2019-05-29T10:03:54.627Z,19.77
2019-05-29T10:04:53.127Z,20.09
2019-05-29T10:05:53.961Z,21.60
2019-05-29T10:06:53.131Z,22.03
2019-05-29T10:07:53.102Z,22.44
2019-05-29T10:08:51.860Z,22.77
2019-05-29T10:09:51.862Z,23.69
2019-05-29T10:10:51.874Z,25.20
2019-05-29T10:11:51.860Z,23.96
2019-05-29T10:12:51.833Z,22.83
2019-05-29T10:13:51.827Z,22.09
2019-05-29T10:14:51.839Z,21.18
2019-05-29T10:15:51.800Z,20.78
2019-05-29T10:16:51.812Z,22.30
2019-05-29T10:17:51.789Z,20.84
2019-05-29T10:18:51.781Z,21.26
2019-05-29T10:19:51.772Z,21.50
2019-05-29T10:20:51.757Z,19.89
2019-05-29T10:21:51.766Z,21.23
2019-05-29T10:22:51.736Z,18.76
2019-05-29T10:23:51.755Z,19.33
2019-05-29T10:24:51.713Z,18.84
2019-05-29T10:25:51.711Z,19.62
2019-05-29T10:26:51.716Z,17.26
2019-05-29T10:27:51.725Z,18.41
2019-05-29T10:29:04.419Z,17.91
2019-05-29T10:29:53.203Z,17.32
2019-05-29T10:30:52.760Z,18.49
2019-05-29T10:31:53.444Z,17.41
2019-05-29T10:32:52.895Z,17.10
2019-05-29T10:33:52.402Z,18.11
2019-05-29T10:34:52.673Z,19.14
2019-05-29T10:35:53.847Z,18.85
2019-05-29T10:36:53.515Z,19.04
2019-05-29T10:37:52.872Z,20.25
2019-05-29T10:38:52.613Z,19.17
2019-05-29T10:39:52.904Z,19.27
2019-05-29T10:41:00.402Z,19.36
2019-05-29T10:41:53.037Z,19.66
2019-05-29T10:42:51.747Z,19.19
2019-05-29T10:43:51.534Z,19.76
2019-05-29T10:44:51.532Z,18.87
2019-05-29T10:45:52.131Z,18.37
2019-05-29T10:46:52.498Z,18.16
2019-05-29T10:47:52.375Z,17.56
2019-05-29T10:48:54.226Z,18.43
2019-05-29T10:49:51.828Z,18.13
2019-05-29T10:50:53.577Z,18.33
2019-05-29T10:52:09.381Z,18.42
2019-05-29T10:52:52.469Z,17.53
2019-05-29T10:53:53.142Z,17.42
2019-05-29T10:54:52.456Z,16.74
2019-05-29T10:55:52.626Z,17.70
2019-05-29T10:56:52.487Z,18.56
2019-05-29T10:57:52.926Z,18.16
2019-05-29T10:58:57.370Z,16.80
2019-05-29T10:59:52.868Z,16.70
2019-05-29T11:00:51.402Z,16.39
2019-05-29T11:01:51.896Z,15.31
2019-05-29T11:02:53.465Z,14.91
2019-05-29T11:03:52.343Z,15.37
2019-05-29T11:04:54.751Z,14.01
2019-05-29T11:05:53.687Z,14.95
2019-05-29T11:06:52.453Z,14.08
2019-05-29T11:07:51.883Z,14.86
2019-05-29T11:08:52.041Z,14.78
2019-05-29T11:09:52.154Z,15.65
2019-05-29T11:10:52.069Z,14.89
2019-05-29T11:11:53.089Z,15.48
2019-05-29T11:12:52.510Z,15.58
2019-05-29T11:13:51.275Z,15.68
2019-05-29T11:14:51.266Z,15.48
2019-05-29T11:15:51.258Z,14.90
2019-05-29T11:16:51.246Z,16.83
2019-05-29T11:17:51.486Z,14.51
2019-05-29T11:18:51.310Z,15.69
2019-05-29T11:19:51.256Z,16.58
2019-05-29T11:20:51.406Z,16.00
2019-05-29T11:21:51.712Z,15.80
2019-05-29T11:22:51.650Z,15.31
2019-05-29T11:23:51.813Z,16.58
2019-05-29T11:24:52.370Z,17.07
2019-05-29T11:25:52.097Z,16.09
2019-05-29T11:26:52.565Z,17.72
2019-05-29T11:27:53.034Z,18.55
2019-05-29T11:28:52.311Z,19.71
2019-05-29T11:29:53.069Z,20.00
2019-05-29T11:30:52.313Z,19.17
2019-05-29T11:31:51.153Z,17.88
2019-05-29T11:32:53.037Z,18.86
2019-05-29T11:33:51.107Z,18.57
2019-05-29T11:34:52.365Z,18.46
2019-05-29T11:36:03.294Z,18.15
2019-05-29T11:36:52.068Z,17.54
2019-05-29T11:37:52.352Z,17.13
2019-05-29T11:38:52.461Z,16.03
2019-05-29T11:39:52.412Z,16.22
2019-05-29T11:41:04.980Z,15.22
2019-05-29T11:41:52.670Z,15.81
2019-05-29T11:42:51.034Z,15.22
2019-05-29T11:43:51.008Z,16.03
2019-05-29T11:44:51.016Z,16.35
2019-05-29T11:45:51.221Z,16.24
2019-05-29T11:46:52.111Z,16.63
2019-05-29T11:47:51.556Z,16.90
2019-05-29T11:48:51.161Z,18.69
2019-05-29T11:49:51.000Z,19.12
2019-05-29T11:50:52.060Z,19.81
2019-05-29T11:51:51.619Z,18.11
2019-05-29T11:52:50.976Z,17.60
2019-05-29T11:53:51.451Z,18.36
2019-05-29T11:54:53.601Z,17.76
2019-05-29T11:55:52.459Z,17.35
2019-05-29T11:56:52.258Z,15.98
2019-05-29T11:57:51.832Z,16.55
2019-05-29T11:58:50.906Z,15.77
2019-05-29T11:59:51.848Z,16.73
2019-05-29T12:00:50.852Z,16.13
2019-05-29T12:01:52.222Z,16.02
2019-05-29T12:02:51.518Z,15.62
2019-05-29T12:04:15.439Z,15.42
2019-05-29T12:04:52.994Z,14.75
2019-05-29T12:05:51.172Z,15.53
2019-05-29T12:06:51.176Z,15.34
2019-05-29T12:07:51.593Z,15.83
2019-05-29T12:08:51.445Z,15.04
2019-05-29T12:09:51.339Z,15.22
2019-05-29T12:10:51.253Z,15.22
2019-05-29T12:11:51.785Z,15.00
2019-05-29T12:12:51.364Z,14.23
2019-05-29T12:13:51.674Z,14.13
2019-05-29T12:15:00.283Z,15.11
2019-05-29T12:15:51.807Z,14.81
2019-05-29T12:16:51.756Z,13.92
2019-05-29T12:17:57.915Z,14.21
2019-05-29T12:18:51.709Z,14.59
2019-05-29T12:19:51.789Z,14.39
2019-05-29T12:20:52.003Z,13.73
2019-05-29T12:21:52.159Z,14.43
2019-05-29T12:23:15.698Z,13.95
2019-05-29T12:23:51.973Z,14.14
2019-05-29T12:24:50.648Z,14.04
2019-05-29T12:26:11.629Z,13.45
2019-05-29T12:26:52.426Z,14.32
2019-05-29T12:27:50.631Z,13.46
2019-05-29T12:28:50.624Z,14.83
2019-05-29T12:29:50.612Z,14.43
2019-05-29T12:30:50.605Z,14.14
2019-05-29T12:31:50.603Z,14.33
2019-05-29T12:32:50.598Z,14.25
2019-05-29T12:33:51.074Z,14.93
2019-05-29T12:34:53.752Z,15.55
2019-05-29T12:35:50.545Z,15.78
2019-05-29T12:36:50.555Z,17.59
2019-05-29T12:37:50.558Z,18.51
2019-05-29T12:38:50.523Z,19.34
2019-05-29T12:39:50.531Z,20.76
2019-05-29T12:40:50.523Z,21.10
2019-05-29T12:41:50.546Z,22.62
2019-05-29T12:42:50.541Z,22.27
2019-05-29T12:43:50.476Z,23.72
2019-05-29T12:44:50.462Z,24.63
2019-05-29T12:45:50.462Z,25.05
2019-05-29T12:46:50.450Z,25.34
2019-05-29T12:47:50.452Z,25.22
2019-05-29T12:48:50.418Z,25.12
2019-05-29T12:49:50.412Z,24.74
2019-05-29T12:50:50.406Z,25.43
2019-05-29T12:51:50.420Z,25.46
2019-05-29T12:52:50.413Z,25.46